sensor_id;sensor_type;location;lat;lon;timestamp;temperature;humidity
15872;DHT22;8035;51.962;7.162;2023-02-22T00:01:28;7.70;99.90
15872;DHT22;8035;51.962;7.162;2023-02-22T00:04:04;7.70;99.90
15872;DHT22;8035;51.962;7.162;2023-02-22T00:06:31;7.70;99.90
15872;DHT22;8035;51.962;7.162;2023-02-22T00:08:57;7.70;99.90
15872;DHT22;8035;51.962;7.162;2023-02-22T00:11:23;7.60;99.90
15872;DHT22;8035;51.962;7.162;2023-02-22T00:13:49;7.60;99.90
15872;DHT22;8035;51.962;7.162;2023-02-22T00:16:19;7.60;99.90
15872;DHT22;8035;51.962;7.162;2023-02-22T00:18:46;7.60;99.90
15872;DHT22;8035;51.962;7.162;2023-02-22T00:21:13;7.60;99.90
15872;DHT22;8035;51.962;7.162;2023-02-22T00:23:41;7.60;99.90
15872;DHT22;8035;51.962;7.162;2023-02-22T00:26:18;7.60;99.90
15872;DHT22;8035;51.962;7.162;2023-02-22T00:28:50;7.60;99.90
15872;DHT22;8035;51.962;7.162;2023-02-22T00:31:17;7.60;99.90
15872;DHT22;8035;51.962;7.162;2023-02-22T00:33:43;7.60;99.90
15872;DHT22;8035;51.962;7.162;2023-02-22T00:36:11;7.60;99.90
15872;DHT22;8035;51.962;7.162;2023-02-22T00:38:37;7.60;99.90
15872;DHT22;8035;51.962;7.162;2023-02-22T00:41:03;7.50;99.90
15872;DHT22;8035;51.962;7.162;2023-02-22T00:43:29;7.50;99.90
15872;DHT22;8035;51.962;7.162;2023-02-22T00:45:54;7.60;99.90
15872;DHT22;8035;51.962;7.162;2023-02-22T00:48:21;7.50;99.90
15872;DHT22;8035;51.962;7.162;2023-02-22T00:50:47;7.60;99.90
15872;DHT22;8035;51.962;7.162;2023-02-22T00:53:13;7.60;99.90
15872;DHT22;8035;51.962;7.162;2023-02-22T00:55:39;7.60;99.90
15872;DHT22;8035;51.962;7.162;2023-02-22T00:58:06;7.60;99.90
15872;DHT22;8035;51.962;7.162;2023-02-22T01:00:34;7.60;99.90
15872;DHT22;8035;51.962;7.162;2023-02-22T01:03:02;7.60;99.90
15872;DHT22;8035;51.962;7.162;2023-02-22T01:05:29;7.60;99.90
15872;DHT22;8035;51.962;7.162;2023-02-22T01:07:56;7.60;99.90
15872;DHT22;8035;51.962;7.162;2023-02-22T01:10:24;7.60;99.90
15872;DHT22;8035;51.962;7.162;2023-02-22T01:12:50;7.50;99.90
15872;DHT22;8035;51.962;7.162;2023-02-22T01:15:21;7.50;99.90
15872;DHT22;8035;51.962;7.162;2023-02-22T01:17:49;7.50;99.90
15872;DHT22;8035;51.962;7.162;2023-02-22T01:20:16;7.50;99.90
15872;DHT22;8035;51.962;7.162;2023-02-22T01:22:45;7.50;99.90
15872;DHT22;8035;51.962;7.162;2023-02-22T01:25:16;7.50;99.90
15872;DHT22;8035;51.962;7.162;2023-02-22T01:27:42;7.50;99.90
15872;DHT22;8035;51.962;7.162;2023-02-22T01:30:09;7.50;99.90
15872;DHT22;8035;51.962;7.162;2023-02-22T01:32:37;7.60;99.90
15872;DHT22;8035;51.962;7.162;2023-02-22T01:35:05;7.60;99.90
15872;DHT22;8035;51.962;7.162;2023-02-22T01:37:35;7.60;99.90
15872;DHT22;8035;51.962;7.162;2023-02-22T01:40:03;7.50;99.90
15872;DHT22;8035;51.962;7.162;2023-02-22T01:42:29;7.50;99.90
15872;DHT22;8035;51.962;7.162;2023-02-22T01:48:11;7.50;99.90
15872;DHT22;8035;51.962;7.162;2023-02-22T01:50:40;7.50;99.90
15872;DHT22;8035;51.962;7.162;2023-02-22T01:53:08;7.50;99.90
15872;DHT22;8035;51.962;7.162;2023-02-22T01:55:35;7.50;99.90
15872;DHT22;8035;51.962;7.162;2023-02-22T01:58:04;7.50;99.90
15872;DHT22;8035;51.962;7.162;2023-02-22T02:00:30;7.50;99.90
15872;DHT22;8035;51.962;7.162;2023-02-22T02:03:07;7.50;99.90
15872;DHT22;8035;51.962;7.162;2023-02-22T02:05:34;7.50;99.90
15872;DHT22;8035;51.962;7.162;2023-02-22T02:08:13;7.50;99.90
15872;DHT22;8035;51.962;7.162;2023-02-22T02:10:41;7.50;99.90
15872;DHT22;8035;51.962;7.162;2023-02-22T02:13:07;7.50;99.90
15872;DHT22;8035;51.962;7.162;2023-02-22T02:15:34;7.50;99.90
15872;DHT22;8035;51.962;7.162;2023-02-22T02:18:06;7.50;99.90
15872;DHT22;8035;51.962;7.162;2023-02-22T02:26:38;7.40;99.90
15872;DHT22;8035;51.962;7.162;2023-02-22T02:35:03;7.40;99.90
15872;DHT22;8035;51.962;7.162;2023-02-22T02:37:43;7.40;99.90
15872;DHT22;8035;51.962;7.162;2023-02-22T02:40:22;7.40;99.90
15872;DHT22;8035;51.962;7.162;2023-02-22T02:43:06;7.40;99.90
15872;DHT22;8035;51.962;7.162;2023-02-22T02:48:27;7.30;99.90
15872;DHT22;8035;51.962;7.162;2023-02-22T02:50:55;7.20;99.90
15872;DHT22;8035;51.962;7.162;2023-02-22T02:53:36;7.20;99.90
15872;DHT22;8035;51.962;7.162;2023-02-22T02:56:03;7.10;99.90
15872;DHT22;8035;51.962;7.162;2023-02-22T02:58:29;7.10;99.90
15872;DHT22;8035;51.962;7.162;2023-02-22T03:00:57;7.00;99.90
15872;DHT22;8035;51.962;7.162;2023-02-22T03:10:00;6.90;99.90
15872;DHT22;8035;51.962;7.162;2023-02-22T03:13:02;6.90;99.90
15872;DHT22;8035;51.962;7.162;2023-02-22T03:18:17;6.80;99.90
15872;DHT22;8035;51.962;7.162;2023-02-22T03:20:54;6.80;99.90
15872;DHT22;8035;51.962;7.162;2023-02-22T03:23:47;6.80;99.90
15872;DHT22;8035;51.962;7.162;2023-02-22T03:26:33;6.80;99.90
15872;DHT22;8035;51.962;7.162;2023-02-22T03:29:00;6.80;99.90
15872;DHT22;8035;51.962;7.162;2023-02-22T03:31:33;6.80;99.90
15872;DHT22;8035;51.962;7.162;2023-02-22T03:34:07;6.70;99.90
15872;DHT22;8035;51.962;7.162;2023-02-22T03:36:38;6.70;99.90
15872;DHT22;8035;51.962;7.162;2023-02-22T03:39:09;6.70;99.90
15872;DHT22;8035;51.962;7.162;2023-02-22T03:41:38;6.70;99.90
15872;DHT22;8035;51.962;7.162;2023-02-22T03:44:08;6.60;99.90
15872;DHT22;8035;51.962;7.162;2023-02-22T03:46:38;6.60;99.90
15872;DHT22;8035;51.962;7.162;2023-02-22T03:51:38;6.60;99.90
15872;DHT22;8035;51.962;7.162;2023-02-22T03:54:04;6.60;99.90
15872;DHT22;8035;51.962;7.162;2023-02-22T03:56:43;6.60;99.90
15872;DHT22;8035;51.962;7.162;2023-02-22T03:59:12;6.60;99.90
15872;DHT22;8035;51.962;7.162;2023-02-22T04:01:38;6.60;99.90
15872;DHT22;8035;51.962;7.162;2023-02-22T04:04:03;6.60;99.90
15872;DHT22;8035;51.962;7.162;2023-02-22T04:06:29;6.60;99.90
15872;DHT22;8035;51.962;7.162;2023-02-22T04:08:55;6.60;99.90
15872;DHT22;8035;51.962;7.162;2023-02-22T04:11:21;6.70;99.90
15872;DHT22;8035;51.962;7.162;2023-02-22T04:13:47;6.60;99.90
15872;DHT22;8035;51.962;7.162;2023-02-22T04:16:12;6.70;99.90
15872;DHT22;8035;51.962;7.162;2023-02-22T04:18:38;6.70;99.90
15872;DHT22;8035;51.962;7.162;2023-02-22T04:21:04;6.70;99.90
15872;DHT22;8035;51.962;7.162;2023-02-22T04:23:30;6.70;99.90
15872;DHT22;8035;51.962;7.162;2023-02-22T04:25:55;6.60;99.90
15872;DHT22;8035;51.962;7.162;2023-02-22T04:28:21;6.70;99.90
15872;DHT22;8035;51.962;7.162;2023-02-22T04:30:47;6.60;99.90
15872;DHT22;8035;51.962;7.162;2023-02-22T04:33:13;6.60;99.90
15872;DHT22;8035;51.962;7.162;2023-02-22T04:35:40;6.50;99.90
15872;DHT22;8035;51.962;7.162;2023-02-22T04:38:06;6.50;99.90
15872;DHT22;8035;51.962;7.162;2023-02-22T04:40:33;6.50;99.90
15872;DHT22;8035;51.962;7.162;2023-02-22T04:42:59;6.50;99.90
15872;DHT22;8035;51.962;7.162;2023-02-22T04:45:25;6.40;99.90
15872;DHT22;8035;51.962;7.162;2023-02-22T04:47:51;6.50;99.90
15872;DHT22;8035;51.962;7.162;2023-02-22T04:50:16;6.50;99.90
15872;DHT22;8035;51.962;7.162;2023-02-22T04:52:42;6.50;99.90
15872;DHT22;8035;51.962;7.162;2023-02-22T04:55:08;6.50;99.90
15872;DHT22;8035;51.962;7.162;2023-02-22T04:57:53;6.50;99.90
15872;DHT22;8035;51.962;7.162;2023-02-22T05:00:19;6.50;99.90
15872;DHT22;8035;51.962;7.162;2023-02-22T05:02:49;6.50;99.90
15872;DHT22;8035;51.962;7.162;2023-02-22T05:05:16;6.50;99.90
15872;DHT22;8035;51.962;7.162;2023-02-22T05:07:42;6.50;99.90
15872;DHT22;8035;51.962;7.162;2023-02-22T05:10:08;6.50;99.90
15872;DHT22;8035;51.962;7.162;2023-02-22T05:12:34;6.50;99.90
15872;DHT22;8035;51.962;7.162;2023-02-22T05:15:01;6.50;99.90
15872;DHT22;8035;51.962;7.162;2023-02-22T05:17:26;6.50;99.90
15872;DHT22;8035;51.962;7.162;2023-02-22T05:19:52;6.50;99.90
15872;DHT22;8035;51.962;7.162;2023-02-22T05:22:18;6.50;99.90
15872;DHT22;8035;51.962;7.162;2023-02-22T05:24:43;6.50;99.90
15872;DHT22;8035;51.962;7.162;2023-02-22T05:27:09;6.40;99.90
15872;DHT22;8035;51.962;7.162;2023-02-22T05:29:36;6.40;99.90
15872;DHT22;8035;51.962;7.162;2023-02-22T05:32:03;6.40;99.90
15872;DHT22;8035;51.962;7.162;2023-02-22T05:34:29;6.40;99.90
15872;DHT22;8035;51.962;7.162;2023-02-22T05:36:55;6.30;99.90
15872;DHT22;8035;51.962;7.162;2023-02-22T05:39:21;6.30;99.90
15872;DHT22;8035;51.962;7.162;2023-02-22T05:41:47;6.30;99.90
15872;DHT22;8035;51.962;7.162;2023-02-22T05:44:13;6.30;99.90
15872;DHT22;8035;51.962;7.162;2023-02-22T05:46:38;6.20;99.90
15872;DHT22;8035;51.962;7.162;2023-02-22T05:49:04;6.20;99.90
15872;DHT22;8035;51.962;7.162;2023-02-22T05:51:30;6.20;99.90
15872;DHT22;8035;51.962;7.162;2023-02-22T05:53:55;6.20;99.90
15872;DHT22;8035;51.962;7.162;2023-02-22T05:56:27;6.20;99.90
15872;DHT22;8035;51.962;7.162;2023-02-22T05:58:53;6.20;99.90
15872;DHT22;8035;51.962;7.162;2023-02-22T06:01:20;6.20;99.90
15872;DHT22;8035;51.962;7.162;2023-02-22T06:03:48;6.30;99.90
15872;DHT22;8035;51.962;7.162;2023-02-22T06:06:14;6.20;99.90
15872;DHT22;8035;51.962;7.162;2023-02-22T06:08:40;6.20;99.90
15872;DHT22;8035;51.962;7.162;2023-02-22T06:11:06;6.20;99.90
15872;DHT22;8035;51.962;7.162;2023-02-22T06:13:34;6.20;99.90
15872;DHT22;8035;51.962;7.162;2023-02-22T06:16:00;6.20;99.90
15872;DHT22;8035;51.962;7.162;2023-02-22T06:18:25;6.20;99.90
15872;DHT22;8035;51.962;7.162;2023-02-22T06:20:51;6.20;99.90
15872;DHT22;8035;51.962;7.162;2023-02-22T06:23:17;6.10;99.90
15872;DHT22;8035;51.962;7.162;2023-02-22T06:25:43;6.10;99.90
15872;DHT22;8035;51.962;7.162;2023-02-22T06:28:08;6.10;99.90
15872;DHT22;8035;51.962;7.162;2023-02-22T06:30:35;6.10;99.90
15872;DHT22;8035;51.962;7.162;2023-02-22T06:33:00;6.10;99.90
15872;DHT22;8035;51.962;7.162;2023-02-22T06:35:26;6.10;99.90
15872;DHT22;8035;51.962;7.162;2023-02-22T06:37:52;6.00;99.90
15872;DHT22;8035;51.962;7.162;2023-02-22T06:40:18;6.00;99.90
15872;DHT22;8035;51.962;7.162;2023-02-22T06:42:47;5.90;99.90
15872;DHT22;8035;51.962;7.162;2023-02-22T06:45:14;5.90;99.90
15872;DHT22;8035;51.962;7.162;2023-02-22T06:47:40;5.90;99.90
15872;DHT22;8035;51.962;7.162;2023-02-22T06:50:07;5.90;99.90
15872;DHT22;8035;51.962;7.162;2023-02-22T06:52:41;5.90;99.90
15872;DHT22;8035;51.962;7.162;2023-02-22T06:55:07;5.90;99.90
15872;DHT22;8035;51.962;7.162;2023-02-22T06:57:32;5.90;99.90
15872;DHT22;8035;51.962;7.162;2023-02-22T06:59:58;5.90;99.90
15872;DHT22;8035;51.962;7.162;2023-02-22T07:02:23;5.90;99.90
15872;DHT22;8035;51.962;7.162;2023-02-22T07:04:49;6.00;99.90
15872;DHT22;8035;51.962;7.162;2023-02-22T07:07:15;6.00;99.90
15872;DHT22;8035;51.962;7.162;2023-02-22T07:09:41;6.00;99.90
15872;DHT22;8035;51.962;7.162;2023-02-22T07:12:09;6.10;99.90
15872;DHT22;8035;51.962;7.162;2023-02-22T07:14:35;6.00;99.90
15872;DHT22;8035;51.962;7.162;2023-02-22T07:17:01;6.00;99.90
15872;DHT22;8035;51.962;7.162;2023-02-22T07:19:26;6.00;99.90
15872;DHT22;8035;51.962;7.162;2023-02-22T07:21:52;6.00;99.90
15872;DHT22;8035;51.962;7.162;2023-02-22T07:24:24;6.00;99.90
15872;DHT22;8035;51.962;7.162;2023-02-22T07:26:49;6.00;99.90
15872;DHT22;8035;51.962;7.162;2023-02-22T07:29:15;6.00;99.90
15872;DHT22;8035;51.962;7.162;2023-02-22T07:31:40;6.00;99.90
15872;DHT22;8035;51.962;7.162;2023-02-22T07:34:06;6.00;99.90
15872;DHT22;8035;51.962;7.162;2023-02-22T07:36:32;6.10;99.90
15872;DHT22;8035;51.962;7.162;2023-02-22T07:38:57;6.00;99.90
15872;DHT22;8035;51.962;7.162;2023-02-22T07:41:23;6.00;99.90
15872;DHT22;8035;51.962;7.162;2023-02-22T07:43:49;6.00;99.90
15872;DHT22;8035;51.962;7.162;2023-02-22T07:46:15;6.00;99.90
15872;DHT22;8035;51.962;7.162;2023-02-22T07:48:40;6.00;99.90
15872;DHT22;8035;51.962;7.162;2023-02-22T07:51:06;5.90;99.90
15872;DHT22;8035;51.962;7.162;2023-02-22T07:53:34;5.90;99.90
15872;DHT22;8035;51.962;7.162;2023-02-22T07:56:01;5.90;99.90
15872;DHT22;8035;51.962;7.162;2023-02-22T07:58:28;5.90;99.90
15872;DHT22;8035;51.962;7.162;2023-02-22T08:00:55;6.00;99.90
15872;DHT22;8035;51.962;7.162;2023-02-22T08:03:23;6.00;99.90
15872;DHT22;8035;51.962;7.162;2023-02-22T08:05:52;6.00;99.90
15872;DHT22;8035;51.962;7.162;2023-02-22T08:08:18;6.00;99.90
15872;DHT22;8035;51.962;7.162;2023-02-22T08:10:44;6.00;99.90
15872;DHT22;8035;51.962;7.162;2023-02-22T08:13:10;6.10;99.90
15872;DHT22;8035;51.962;7.162;2023-02-22T08:15:54;6.10;99.90
15872;DHT22;8035;51.962;7.162;2023-02-22T08:18:22;6.10;99.90
15872;DHT22;8035;51.962;7.162;2023-02-22T08:20:49;6.10;99.90
15872;DHT22;8035;51.962;7.162;2023-02-22T08:23:17;6.20;99.90
15872;DHT22;8035;51.962;7.162;2023-02-22T08:25:43;6.20;99.90
15872;DHT22;8035;51.962;7.162;2023-02-22T08:28:11;6.30;99.90
15872;DHT22;8035;51.962;7.162;2023-02-22T08:30:38;6.30;99.90
15872;DHT22;8035;51.962;7.162;2023-02-22T08:33:04;6.20;99.90
15872;DHT22;8035;51.962;7.162;2023-02-22T08:35:31;6.20;99.90
15872;DHT22;8035;51.962;7.162;2023-02-22T08:37:59;6.20;99.90
15872;DHT22;8035;51.962;7.162;2023-02-22T08:40:27;6.30;99.90
15872;DHT22;8035;51.962;7.162;2023-02-22T08:42:54;6.40;99.90
15872;DHT22;8035;51.962;7.162;2023-02-22T08:45:19;6.40;99.90
15872;DHT22;8035;51.962;7.162;2023-02-22T08:47:46;6.40;99.90
15872;DHT22;8035;51.962;7.162;2023-02-22T08:50:29;6.40;99.90
15872;DHT22;8035;51.962;7.162;2023-02-22T08:52:57;6.40;99.90
15872;DHT22;8035;51.962;7.162;2023-02-22T08:55:26;6.30;99.90
15872;DHT22;8035;51.962;7.162;2023-02-22T08:57:52;6.40;99.90
15872;DHT22;8035;51.962;7.162;2023-02-22T09:00:20;6.40;99.90
15872;DHT22;8035;51.962;7.162;2023-02-22T09:02:49;6.40;99.90
15872;DHT22;8035;51.962;7.162;2023-02-22T09:05:15;6.40;99.90
15872;DHT22;8035;51.962;7.162;2023-02-22T09:07:41;6.40;99.90
15872;DHT22;8035;51.962;7.162;2023-02-22T09:10:12;6.50;99.90
15872;DHT22;8035;51.962;7.162;2023-02-22T09:12:40;6.50;99.90
15872;DHT22;8035;51.962;7.162;2023-02-22T09:15:06;6.60;99.90
15872;DHT22;8035;51.962;7.162;2023-02-22T09:17:32;6.60;99.90
15872;DHT22;8035;51.962;7.162;2023-02-22T09:19:57;6.80;99.90
15872;DHT22;8035;51.962;7.162;2023-02-22T09:22:23;6.80;99.90
15872;DHT22;8035;51.962;7.162;2023-02-22T09:24:51;6.80;99.90
15872;DHT22;8035;51.962;7.162;2023-02-22T09:27:17;6.80;99.90
15872;DHT22;8035;51.962;7.162;2023-02-22T09:29:47;6.80;99.90
15872;DHT22;8035;51.962;7.162;2023-02-22T09:32:12;6.80;99.90
15872;DHT22;8035;51.962;7.162;2023-02-22T09:34:38;6.80;99.90
15872;DHT22;8035;51.962;7.162;2023-02-22T09:37:11;6.90;99.90
15872;DHT22;8035;51.962;7.162;2023-02-22T09:39:55;7.00;99.90
15872;DHT22;8035;51.962;7.162;2023-02-22T09:42:35;7.10;99.90
15872;DHT22;8035;51.962;7.162;2023-02-22T09:45:26;7.20;99.90
15872;DHT22;8035;51.962;7.162;2023-02-22T09:48:13;7.40;99.90
15872;DHT22;8035;51.962;7.162;2023-02-22T09:50:42;7.60;99.90
15872;DHT22;8035;51.962;7.162;2023-02-22T09:55:59;8.40;99.90
15872;DHT22;8035;51.962;7.162;2023-02-22T10:00:57;8.90;99.90
15872;DHT22;8035;51.962;7.162;2023-02-22T10:06:20;9.30;99.90
15872;DHT22;8035;51.962;7.162;2023-02-22T10:08:47;9.40;99.90
15872;DHT22;8035;51.962;7.162;2023-02-22T10:14:31;9.50;99.90
15872;DHT22;8035;51.962;7.162;2023-02-22T10:25:25;9.70;99.90
15872;DHT22;8035;51.962;7.162;2023-02-22T10:30:37;10.10;99.90
15872;DHT22;8035;51.962;7.162;2023-02-22T10:33:25;10.20;99.90
15872;DHT22;8035;51.962;7.162;2023-02-22T10:35:54;10.30;99.90
15872;DHT22;8035;51.962;7.162;2023-02-22T10:38:23;10.50;99.90
15872;DHT22;8035;51.962;7.162;2023-02-22T10:40:56;10.60;99.90
15872;DHT22;8035;51.962;7.162;2023-02-22T10:43:24;10.70;99.90
15872;DHT22;8035;51.962;7.162;2023-02-22T10:46:01;10.90;99.90
15872;DHT22;8035;51.962;7.162;2023-02-22T10:48:29;10.90;99.90
15872;DHT22;8035;51.962;7.162;2023-02-22T10:51:01;11.00;99.90
15872;DHT22;8035;51.962;7.162;2023-02-22T10:53:28;10.80;99.90
15872;DHT22;8035;51.962;7.162;2023-02-22T10:56:27;10.80;99.90
15872;DHT22;8035;51.962;7.162;2023-02-22T10:59:02;10.60;99.90
15872;DHT22;8035;51.962;7.162;2023-02-22T11:04:09;10.40;99.90
15872;DHT22;8035;51.962;7.162;2023-02-22T11:06:36;10.50;99.90
15872;DHT22;8035;51.962;7.162;2023-02-22T11:09:19;10.40;99.90
15872;DHT22;8035;51.962;7.162;2023-02-22T11:11:50;10.30;99.90
15872;DHT22;8035;51.962;7.162;2023-02-22T11:14:31;10.20;99.90
15872;DHT22;8035;51.962;7.162;2023-02-22T11:16:58;10.20;99.90
15872;DHT22;8035;51.962;7.162;2023-02-22T11:19:27;10.30;99.90
15872;DHT22;8035;51.962;7.162;2023-02-22T11:22:24;10.30;99.90
15872;DHT22;8035;51.962;7.162;2023-02-22T11:25:02;10.30;99.90
15872;DHT22;8035;51.962;7.162;2023-02-22T11:27:36;10.20;99.90
15872;DHT22;8035;51.962;7.162;2023-02-22T11:30:29;10.40;99.90
15872;DHT22;8035;51.962;7.162;2023-02-22T11:33:15;10.50;99.90
15872;DHT22;8035;51.962;7.162;2023-02-22T11:36:00;10.60;99.90
15872;DHT22;8035;51.962;7.162;2023-02-22T11:38:33;10.60;99.90
15872;DHT22;8035;51.962;7.162;2023-02-22T11:43:39;10.80;99.90
15872;DHT22;8035;51.962;7.162;2023-02-22T11:46:08;10.90;99.90
15872;DHT22;8035;51.962;7.162;2023-02-22T11:48:38;11.00;99.90
15872;DHT22;8035;51.962;7.162;2023-02-22T11:54:36;11.40;99.90
15872;DHT22;8035;51.962;7.162;2023-02-22T12:05:51;12.10;99.90
15872;DHT22;8035;51.962;7.162;2023-02-22T12:14:25;12.60;99.90
15872;DHT22;8035;51.962;7.162;2023-02-22T12:19:41;13.00;99.90
15872;DHT22;8035;51.962;7.162;2023-02-22T12:24:57;13.40;99.90
15872;DHT22;8035;51.962;7.162;2023-02-22T12:27:31;13.50;99.90
15872;DHT22;8035;51.962;7.162;2023-02-22T12:30:14;13.70;99.90
15872;DHT22;8035;51.962;7.162;2023-02-22T12:32:52;13.60;99.90
15872;DHT22;8035;51.962;7.162;2023-02-22T12:35:37;13.50;99.90
15872;DHT22;8035;51.962;7.162;2023-02-22T12:43:31;13.60;99.90
15872;DHT22;8035;51.962;7.162;2023-02-22T12:46:12;13.60;99.90
15872;DHT22;8035;51.962;7.162;2023-02-22T12:54:53;13.30;99.90
15872;DHT22;8035;51.962;7.162;2023-02-22T13:20:56;13.40;99.90
15872;DHT22;8035;51.962;7.162;2023-02-22T13:25:57;13.60;99.90
15872;DHT22;8035;51.962;7.162;2023-02-22T13:28:42;13.70;99.90
15872;DHT22;8035;51.962;7.162;2023-02-22T13:37:24;13.80;99.90
15872;DHT22;8035;51.962;7.162;2023-02-22T13:53:48;14.10;99.90
15872;DHT22;8035;51.962;7.162;2023-02-22T13:56:15;14.20;99.90
15872;DHT22;8035;51.962;7.162;2023-02-22T13:58:51;14.10;99.90
15872;DHT22;8035;51.962;7.162;2023-02-22T14:01:46;14.10;99.90
15872;DHT22;8035;51.962;7.162;2023-02-22T14:06:57;14.00;99.90
15872;DHT22;8035;51.962;7.162;2023-02-22T14:09:51;14.00;99.90
15872;DHT22;8035;51.962;7.162;2023-02-22T14:15:13;14.10;99.90
15872;DHT22;8035;51.962;7.162;2023-02-22T14:17:40;14.10;99.90
15872;DHT22;8035;51.962;7.162;2023-02-22T14:22:41;14.20;99.90
15872;DHT22;8035;51.962;7.162;2023-02-22T14:27:55;14.20;99.90
15872;DHT22;8035;51.962;7.162;2023-02-22T14:30:27;14.20;99.90
15872;DHT22;8035;51.962;7.162;2023-02-22T14:32:55;14.10;99.90
15872;DHT22;8035;51.962;7.162;2023-02-22T14:35:23;14.00;99.90
15872;DHT22;8035;51.962;7.162;2023-02-22T14:37:54;13.90;99.90
15872;DHT22;8035;51.962;7.162;2023-02-22T14:45:30;13.50;99.90
15872;DHT22;8035;51.962;7.162;2023-02-22T14:48:06;13.40;99.90
15872;DHT22;8035;51.962;7.162;2023-02-22T14:55:42;13.30;99.90
15872;DHT22;8035;51.962;7.162;2023-02-22T15:03:47;13.20;99.90
15872;DHT22;8035;51.962;7.162;2023-02-22T15:08:42;13.10;99.90
15872;DHT22;8035;51.962;7.162;2023-02-22T15:11:21;13.00;99.90
15872;DHT22;8035;51.962;7.162;2023-02-22T15:13:53;13.00;99.90
15872;DHT22;8035;51.962;7.162;2023-02-22T15:16:20;13.00;99.90
15872;DHT22;8035;51.962;7.162;2023-02-22T15:18:51;13.00;99.90
15872;DHT22;8035;51.962;7.162;2023-02-22T15:21:24;12.90;99.90
15872;DHT22;8035;51.962;7.162;2023-02-22T15:23:53;12.90;99.90
15872;DHT22;8035;51.962;7.162;2023-02-22T15:26:34;12.90;99.90
15872;DHT22;8035;51.962;7.162;2023-02-22T15:31:41;12.90;99.90
15872;DHT22;8035;51.962;7.162;2023-02-22T15:34:16;12.90;99.90
15872;DHT22;8035;51.962;7.162;2023-02-22T15:36:46;12.80;99.90
15872;DHT22;8035;51.962;7.162;2023-02-22T15:42:11;12.70;99.90
15872;DHT22;8035;51.962;7.162;2023-02-22T15:44:45;12.70;99.90
15872;DHT22;8035;51.962;7.162;2023-02-22T15:47:23;12.60;99.90
15872;DHT22;8035;51.962;7.162;2023-02-22T15:50:31;12.60;99.90
15872;DHT22;8035;51.962;7.162;2023-02-22T15:55:48;12.50;99.90
15872;DHT22;8035;51.962;7.162;2023-02-22T15:58:23;12.40;99.90
15872;DHT22;8035;51.962;7.162;2023-02-22T16:01:11;12.40;99.90
15872;DHT22;8035;51.962;7.162;2023-02-22T16:03:42;12.30;99.90
15872;DHT22;8035;51.962;7.162;2023-02-22T16:06:34;12.30;99.90
15872;DHT22;8035;51.962;7.162;2023-02-22T16:09:07;12.20;99.90
15872;DHT22;8035;51.962;7.162;2023-02-22T16:14:49;12.10;99.90
15872;DHT22;8035;51.962;7.162;2023-02-22T16:19:58;12.00;99.90
15872;DHT22;8035;51.962;7.162;2023-02-22T16:22:32;11.90;99.90
15872;DHT22;8035;51.962;7.162;2023-02-22T16:27:46;11.80;99.90
15872;DHT22;8035;51.962;7.162;2023-02-22T16:32:57;11.70;99.90
15872;DHT22;8035;51.962;7.162;2023-02-22T16:35:27;11.70;99.90
15872;DHT22;8035;51.962;7.162;2023-02-22T16:37:59;11.60;99.90
15872;DHT22;8035;51.962;7.162;2023-02-22T16:40:33;11.60;99.90
15872;DHT22;8035;51.962;7.162;2023-02-22T16:43:02;11.50;99.90
15872;DHT22;8035;51.962;7.162;2023-02-22T16:45:28;11.50;99.90
15872;DHT22;8035;51.962;7.162;2023-02-22T16:47:54;11.50;99.90
15872;DHT22;8035;51.962;7.162;2023-02-22T16:50:20;11.40;99.90
15872;DHT22;8035;51.962;7.162;2023-02-22T16:52:48;11.40;99.90
15872;DHT22;8035;51.962;7.162;2023-02-22T16:55:16;11.30;99.90
15872;DHT22;8035;51.962;7.162;2023-02-22T16:57:42;11.20;99.90
15872;DHT22;8035;51.962;7.162;2023-02-22T17:00:17;11.20;99.90
15872;DHT22;8035;51.962;7.162;2023-02-22T17:02:43;11.10;99.90
15872;DHT22;8035;51.962;7.162;2023-02-22T17:05:13;11.00;99.90
15872;DHT22;8035;51.962;7.162;2023-02-22T17:07:39;10.90;99.90
15872;DHT22;8035;51.962;7.162;2023-02-22T17:10:07;10.80;99.90
15872;DHT22;8035;51.962;7.162;2023-02-22T17:12:38;10.80;99.90
15872;DHT22;8035;51.962;7.162;2023-02-22T17:15:20;10.70;99.90
15872;DHT22;8035;51.962;7.162;2023-02-22T17:17:47;10.60;99.90
15872;DHT22;8035;51.962;7.162;2023-02-22T17:20:13;10.60;99.90
15872;DHT22;8035;51.962;7.162;2023-02-22T17:22:39;10.50;99.90
15872;DHT22;8035;51.962;7.162;2023-02-22T17:25:20;10.50;99.90
15872;DHT22;8035;51.962;7.162;2023-02-22T17:27:46;10.50;99.90
15872;DHT22;8035;51.962;7.162;2023-02-22T17:30:14;10.40;99.90
15872;DHT22;8035;51.962;7.162;2023-02-22T17:32:41;10.40;99.90
15872;DHT22;8035;51.962;7.162;2023-02-22T17:35:07;10.40;99.90
15872;DHT22;8035;51.962;7.162;2023-02-22T17:37:33;10.30;99.90
15872;DHT22;8035;51.962;7.162;2023-02-22T17:39:59;10.30;99.90
15872;DHT22;8035;51.962;7.162;2023-02-22T17:42:24;10.30;99.90
15872;DHT22;8035;51.962;7.162;2023-02-22T17:44:50;10.20;99.90
15872;DHT22;8035;51.962;7.162;2023-02-22T17:47:15;10.30;99.90
15872;DHT22;8035;51.962;7.162;2023-02-22T17:49:41;10.40;99.90
15872;DHT22;8035;51.962;7.162;2023-02-22T17:52:08;10.40;99.90
15872;DHT22;8035;51.962;7.162;2023-02-22T17:54:34;10.50;99.90
15872;DHT22;8035;51.962;7.162;2023-02-22T17:56:59;10.60;99.90
15872;DHT22;8035;51.962;7.162;2023-02-22T17:59:26;10.60;99.90
15872;DHT22;8035;51.962;7.162;2023-02-22T18:01:51;10.60;99.90
15872;DHT22;8035;51.962;7.162;2023-02-22T18:04:17;10.60;99.90
15872;DHT22;8035;51.962;7.162;2023-02-22T18:06:43;10.60;99.90
15872;DHT22;8035;51.962;7.162;2023-02-22T18:09:10;10.60;99.90
15872;DHT22;8035;51.962;7.162;2023-02-22T18:11:37;10.60;99.90
15872;DHT22;8035;51.962;7.162;2023-02-22T18:14:03;10.60;99.90
15872;DHT22;8035;51.962;7.162;2023-02-22T18:16:31;10.60;99.90
15872;DHT22;8035;51.962;7.162;2023-02-22T18:18:57;10.50;99.90
15872;DHT22;8035;51.962;7.162;2023-02-22T18:21:25;10.50;99.90
15872;DHT22;8035;51.962;7.162;2023-02-22T18:23:51;10.50;99.90
15872;DHT22;8035;51.962;7.162;2023-02-22T18:26:18;10.40;99.90
15872;DHT22;8035;51.962;7.162;2023-02-22T18:28:44;10.40;99.90
15872;DHT22;8035;51.962;7.162;2023-02-22T18:31:12;10.40;99.90
15872;DHT22;8035;51.962;7.162;2023-02-22T18:33:39;10.40;99.90
15872;DHT22;8035;51.962;7.162;2023-02-22T18:36:05;10.40;99.90
15872;DHT22;8035;51.962;7.162;2023-02-22T18:38:53;10.30;99.90
15872;DHT22;8035;51.962;7.162;2023-02-22T18:41:21;10.30;99.90
15872;DHT22;8035;51.962;7.162;2023-02-22T18:43:49;10.30;99.90
15872;DHT22;8035;51.962;7.162;2023-02-22T18:46:18;10.30;99.90
15872;DHT22;8035;51.962;7.162;2023-02-22T18:48:47;10.30;99.90
15872;DHT22;8035;51.962;7.162;2023-02-22T18:51:15;10.30;99.90
15872;DHT22;8035;51.962;7.162;2023-02-22T18:53:42;10.30;99.90
15872;DHT22;8035;51.962;7.162;2023-02-22T18:56:10;10.30;99.90
15872;DHT22;8035;51.962;7.162;2023-02-22T18:58:37;10.30;99.90
15872;DHT22;8035;51.962;7.162;2023-02-22T19:01:04;10.40;99.90
15872;DHT22;8035;51.962;7.162;2023-02-22T19:03:31;10.40;99.90
15872;DHT22;8035;51.962;7.162;2023-02-22T19:06:05;10.50;99.90
15872;DHT22;8035;51.962;7.162;2023-02-22T19:08:33;10.50;99.90
15872;DHT22;8035;51.962;7.162;2023-02-22T19:11:07;10.50;99.90
15872;DHT22;8035;51.962;7.162;2023-02-22T19:13:33;10.50;99.90
15872;DHT22;8035;51.962;7.162;2023-02-22T19:16:03;10.50;99.90
15872;DHT22;8035;51.962;7.162;2023-02-22T19:18:30;10.50;99.90